sensor_id;sensor_type;location;lat;lon;timestamp;temperature;humidity
65568;DHT22;52211;50.154;8.682;2023-06-14T00:01:11;21.20;31.40
65568;DHT22;52211;50.154;8.682;2023-06-14T00:03:42;21.10;31.40
65568;DHT22;52211;50.154;8.682;2023-06-14T00:06:09;21.10;31.40
65568;DHT22;52211;50.154;8.682;2023-06-14T00:08:39;21.10;31.50
65568;DHT22;52211;50.154;8.682;2023-06-14T00:11:08;21.10;31.60
65568;DHT22;52211;50.154;8.682;2023-06-14T00:13:37;21.00;31.70
65568;DHT22;52211;50.154;8.682;2023-06-14T00:16:04;21.00;31.70
65568;DHT22;52211;50.154;8.682;2023-06-14T00:18:31;21.00;31.80
65568;DHT22;52211;50.154;8.682;2023-06-14T00:21:01;21.00;31.80
65568;DHT22;52211;50.154;8.682;2023-06-14T00:23:30;20.90;32.00
65568;DHT22;52211;50.154;8.682;2023-06-14T00:25:57;20.90;32.00
65568;DHT22;52211;50.154;8.682;2023-06-14T00:28:26;20.90;32.10
65568;DHT22;52211;50.154;8.682;2023-06-14T00:30:58;20.80;32.10
65568;DHT22;52211;50.154;8.682;2023-06-14T00:33:27;20.80;32.10
65568;DHT22;52211;50.154;8.682;2023-06-14T00:35:56;20.80;32.10
65568;DHT22;52211;50.154;8.682;2023-06-14T00:38:28;20.70;32.20
65568;DHT22;52211;50.154;8.682;2023-06-14T00:40:55;20.70;32.50
65568;DHT22;52211;50.154;8.682;2023-06-14T00:43:28;20.70;32.30
65568;DHT22;52211;50.154;8.682;2023-06-14T00:45:57;20.60;32.30
65568;DHT22;52211;50.154;8.682;2023-06-14T00:48:35;20.60;32.40
65568;DHT22;52211;50.154;8.682;2023-06-14T00:51:06;20.60;32.80
65568;DHT22;52211;50.154;8.682;2023-06-14T00:53:33;20.50;32.80
65568;DHT22;52211;50.154;8.682;2023-06-14T00:56:06;20.50;32.60
65568;DHT22;52211;50.154;8.682;2023-06-14T00:58:33;20.40;32.60
65568;DHT22;52211;50.154;8.682;2023-06-14T01:01:07;20.40;32.70
65568;DHT22;52211;50.154;8.682;2023-06-14T01:03:34;20.40;32.80
65568;DHT22;52211;50.154;8.682;2023-06-14T01:12:09;20.30;33.10
65568;DHT22;52211;50.154;8.682;2023-06-14T01:14:43;20.30;33.80
65568;DHT22;52211;50.154;8.682;2023-06-14T01:17:14;20.30;33.00
65568;DHT22;52211;50.154;8.682;2023-06-14T01:19:47;20.30;33.30
65568;DHT22;52211;50.154;8.682;2023-06-14T01:22:14;20.30;33.10
65568;DHT22;52211;50.154;8.682;2023-06-14T01:24:48;20.20;33.20
65568;DHT22;52211;50.154;8.682;2023-06-14T01:27:28;20.20;33.20
65568;DHT22;52211;50.154;8.682;2023-06-14T01:29:58;20.20;33.50
65568;DHT22;52211;50.154;8.682;2023-06-14T01:32:27;20.20;33.30
65568;DHT22;52211;50.154;8.682;2023-06-14T01:35:00;20.10;33.40
65568;DHT22;52211;50.154;8.682;2023-06-14T01:37:30;20.10;33.40
65568;DHT22;52211;50.154;8.682;2023-06-14T01:40:01;20.10;33.50
65568;DHT22;52211;50.154;8.682;2023-06-14T01:42:36;20.00;33.50
65568;DHT22;52211;50.154;8.682;2023-06-14T01:45:14;20.10;33.70
65568;DHT22;52211;50.154;8.682;2023-06-14T01:47:45;20.00;33.80
65568;DHT22;52211;50.154;8.682;2023-06-14T01:50:19;19.90;33.70
65568;DHT22;52211;50.154;8.682;2023-06-14T01:52:47;19.90;34.00
65568;DHT22;52211;50.154;8.682;2023-06-14T01:55:16;19.90;34.20
65568;DHT22;52211;50.154;8.682;2023-06-14T01:57:47;19.90;33.90
65568;DHT22;52211;50.154;8.682;2023-06-14T02:00:14;19.90;34.00
65568;DHT22;52211;50.154;8.682;2023-06-14T02:02:45;19.80;34.00
65568;DHT22;52211;50.154;8.682;2023-06-14T02:05:18;19.80;34.20
65568;DHT22;52211;50.154;8.682;2023-06-14T02:07:45;19.80;34.20
65568;DHT22;52211;50.154;8.682;2023-06-14T02:10:17;19.80;34.20
65568;DHT22;52211;50.154;8.682;2023-06-14T02:12:47;19.80;34.20
65568;DHT22;52211;50.154;8.682;2023-06-14T02:15:14;19.80;34.30
65568;DHT22;52211;50.154;8.682;2023-06-14T02:17:44;19.70;34.30
65568;DHT22;52211;50.154;8.682;2023-06-14T02:20:17;19.70;34.40
65568;DHT22;52211;50.154;8.682;2023-06-14T02:22:47;19.60;34.50
65568;DHT22;52211;50.154;8.682;2023-06-14T02:25:16;19.60;35.20
65568;DHT22;52211;50.154;8.682;2023-06-14T02:27:50;19.60;34.80
65568;DHT22;52211;50.154;8.682;2023-06-14T02:30:17;19.60;34.60
65568;DHT22;52211;50.154;8.682;2023-06-14T02:32:44;19.60;34.60
65568;DHT22;52211;50.154;8.682;2023-06-14T02:35:15;19.60;34.70
65568;DHT22;52211;50.154;8.682;2023-06-14T02:37:46;19.60;34.80
65568;DHT22;52211;50.154;8.682;2023-06-14T02:40:14;19.50;34.90
65568;DHT22;52211;50.154;8.682;2023-06-14T02:42:41;19.40;34.90
65568;DHT22;52211;50.154;8.682;2023-06-14T02:45:13;19.40;34.90
65568;DHT22;52211;50.154;8.682;2023-06-14T02:47:41;19.40;35.20
65568;DHT22;52211;50.154;8.682;2023-06-14T02:50:12;19.40;35.10
65568;DHT22;52211;50.154;8.682;2023-06-14T02:52:43;19.30;35.00
65568;DHT22;52211;50.154;8.682;2023-06-14T02:55:11;19.30;35.10
65568;DHT22;52211;50.154;8.682;2023-06-14T02:57:38;19.20;35.10
65568;DHT22;52211;50.154;8.682;2023-06-14T03:00:09;19.20;35.20
65568;DHT22;52211;50.154;8.682;2023-06-14T03:02:37;19.20;35.30
65568;DHT22;52211;50.154;8.682;2023-06-14T03:05:04;19.10;35.60
65568;DHT22;52211;50.154;8.682;2023-06-14T03:07:34;19.10;35.40
65568;DHT22;52211;50.154;8.682;2023-06-14T03:10:03;19.00;35.40
65568;DHT22;52211;50.154;8.682;2023-06-14T03:12:30;19.00;35.50
65568;DHT22;52211;50.154;8.682;2023-06-14T03:15:00;18.90;35.60
65568;DHT22;52211;50.154;8.682;2023-06-14T03:17:33;18.90;35.60
65568;DHT22;52211;50.154;8.682;2023-06-14T03:20:06;18.80;35.70
65568;DHT22;52211;50.154;8.682;2023-06-14T03:22:38;18.90;35.80
65568;DHT22;52211;50.154;8.682;2023-06-14T03:25:06;18.80;35.80
65568;DHT22;52211;50.154;8.682;2023-06-14T03:27:45;18.80;35.90
65568;DHT22;52211;50.154;8.682;2023-06-14T03:30:14;18.80;36.20
65568;DHT22;52211;50.154;8.682;2023-06-14T03:32:45;18.70;35.90
65568;DHT22;52211;50.154;8.682;2023-06-14T03:35:14;18.70;36.00
65568;DHT22;52211;50.154;8.682;2023-06-14T03:37:47;18.70;36.10
65568;DHT22;52211;50.154;8.682;2023-06-14T03:40:19;18.70;36.10
65568;DHT22;52211;50.154;8.682;2023-06-14T03:42:55;18.70;36.20
65568;DHT22;52211;50.154;8.682;2023-06-14T03:45:26;18.60;36.40
65568;DHT22;52211;50.154;8.682;2023-06-14T03:47:54;18.60;36.30
65568;DHT22;52211;50.154;8.682;2023-06-14T03:50:22;18.60;36.30
65568;DHT22;52211;50.154;8.682;2023-06-14T03:52:49;18.60;36.40
65568;DHT22;52211;50.154;8.682;2023-06-14T03:55:17;18.60;36.50
65568;DHT22;52211;50.154;8.682;2023-06-14T03:57:47;18.60;36.50
65568;DHT22;52211;50.154;8.682;2023-06-14T04:00:17;18.60;36.60
65568;DHT22;52211;50.154;8.682;2023-06-14T04:02:47;18.50;36.60
65568;DHT22;52211;50.154;8.682;2023-06-14T04:05:14;18.50;36.70
65568;DHT22;52211;50.154;8.682;2023-06-14T04:07:46;18.50;36.80
65568;DHT22;52211;50.154;8.682;2023-06-14T04:10:20;18.50;36.80
65568;DHT22;52211;50.154;8.682;2023-06-14T04:12:49;18.50;37.10
65568;DHT22;52211;50.154;8.682;2023-06-14T04:15:17;18.50;37.00
65568;DHT22;52211;50.154;8.682;2023-06-14T04:17:51;18.50;37.00
65568;DHT22;52211;50.154;8.682;2023-06-14T04:20:27;18.50;37.20
65568;DHT22;52211;50.154;8.682;2023-06-14T04:22:56;18.50;37.30
65568;DHT22;52211;50.154;8.682;2023-06-14T04:25:39;18.50;37.30
65568;DHT22;52211;50.154;8.682;2023-06-14T04:28:06;18.50;37.20
65568;DHT22;52211;50.154;8.682;2023-06-14T04:30:39;18.50;37.30
65568;DHT22;52211;50.154;8.682;2023-06-14T04:33:09;18.50;37.30
65568;DHT22;52211;50.154;8.682;2023-06-14T04:35:42;18.50;37.30
65568;DHT22;52211;50.154;8.682;2023-06-14T04:38:09;18.50;37.60
65568;DHT22;52211;50.154;8.682;2023-06-14T04:40:37;18.50;37.50
65568;DHT22;52211;50.154;8.682;2023-06-14T04:43:11;18.60;37.50
65568;DHT22;52211;50.154;8.682;2023-06-14T04:45:44;18.60;37.60
65568;DHT22;52211;50.154;8.682;2023-06-14T04:48:15;18.60;37.70
65568;DHT22;52211;50.154;8.682;2023-06-14T04:50:50;18.60;37.70
65568;DHT22;52211;50.154;8.682;2023-06-14T04:53:21;18.60;37.70
65568;DHT22;52211;50.154;8.682;2023-06-14T04:55:54;18.60;37.90
65568;DHT22;52211;50.154;8.682;2023-06-14T04:58:27;18.60;37.90
65568;DHT22;52211;50.154;8.682;2023-06-14T05:00:59;18.60;37.90
65568;DHT22;52211;50.154;8.682;2023-06-14T05:03:34;18.60;38.00
65568;DHT22;52211;50.154;8.682;2023-06-14T05:06:04;18.60;38.10
65568;DHT22;52211;50.154;8.682;2023-06-14T05:08:35;18.60;38.20
65568;DHT22;52211;50.154;8.682;2023-06-14T05:11:02;18.70;38.20
65568;DHT22;52211;50.154;8.682;2023-06-14T05:13:31;18.70;38.30
65568;DHT22;52211;50.154;8.682;2023-06-14T05:16:02;18.70;38.30
65568;DHT22;52211;50.154;8.682;2023-06-14T05:18:30;18.70;38.50
65568;DHT22;52211;50.154;8.682;2023-06-14T05:20:57;18.70;38.40
65568;DHT22;52211;50.154;8.682;2023-06-14T05:23:28;18.80;38.60
65568;DHT22;52211;50.154;8.682;2023-06-14T05:26:00;18.80;38.60
65568;DHT22;52211;50.154;8.682;2023-06-14T05:28:34;18.80;38.80
65568;DHT22;52211;50.154;8.682;2023-06-14T05:31:01;18.90;38.80
65568;DHT22;52211;50.154;8.682;2023-06-14T05:33:28;18.90;38.70
65568;DHT22;52211;50.154;8.682;2023-06-14T05:35:55;18.90;38.80
65568;DHT22;52211;50.154;8.682;2023-06-14T05:38:29;19.00;38.80
65568;DHT22;52211;50.154;8.682;2023-06-14T05:41:00;19.00;38.90
65568;DHT22;52211;50.154;8.682;2023-06-14T05:43:30;19.00;38.90
65568;DHT22;52211;50.154;8.682;2023-06-14T05:45:58;19.00;38.90
65568;DHT22;52211;50.154;8.682;2023-06-14T05:48:25;19.10;39.00
65568;DHT22;52211;50.154;8.682;2023-06-14T05:50:58;19.10;39.00
65568;DHT22;52211;50.154;8.682;2023-06-14T05:53:25;19.10;39.00
65568;DHT22;52211;50.154;8.682;2023-06-14T05:55:54;19.20;39.00
65568;DHT22;52211;50.154;8.682;2023-06-14T05:58:24;19.30;39.20
65568;DHT22;52211;50.154;8.682;2023-06-14T06:00:57;19.30;39.20
65568;DHT22;52211;50.154;8.682;2023-06-14T06:03:27;19.30;39.30
65568;DHT22;52211;50.154;8.682;2023-06-14T06:06:00;19.40;39.30
65568;DHT22;52211;50.154;8.682;2023-06-14T06:08:32;19.40;39.20
65568;DHT22;52211;50.154;8.682;2023-06-14T06:10:59;19.50;39.30
65568;DHT22;52211;50.154;8.682;2023-06-14T06:13:28;19.50;39.30
65568;DHT22;52211;50.154;8.682;2023-06-14T06:15:55;19.60;39.30
65568;DHT22;52211;50.154;8.682;2023-06-14T06:18:25;19.60;39.40
65568;DHT22;52211;50.154;8.682;2023-06-14T06:20:56;19.70;39.40
65568;DHT22;52211;50.154;8.682;2023-06-14T06:23:23;19.70;39.40
65568;DHT22;52211;50.154;8.682;2023-06-14T06:25:57;19.70;39.40
65568;DHT22;52211;50.154;8.682;2023-06-14T06:28:26;19.80;39.40
65568;DHT22;52211;50.154;8.682;2023-06-14T06:30:55;19.90;39.40
65568;DHT22;52211;50.154;8.682;2023-06-14T06:33:22;19.90;40.10
65568;DHT22;52211;50.154;8.682;2023-06-14T06:35:52;20.00;39.40
65568;DHT22;52211;50.154;8.682;2023-06-14T06:38:22;20.10;39.50
65568;DHT22;52211;50.154;8.682;2023-06-14T06:40:53;20.10;39.40
65568;DHT22;52211;50.154;8.682;2023-06-14T06:43:25;20.20;39.50
65568;DHT22;52211;50.154;8.682;2023-06-14T06:45:55;20.30;39.40
65568;DHT22;52211;50.154;8.682;2023-06-14T06:48:22;20.30;39.60
65568;DHT22;52211;50.154;8.682;2023-06-14T06:50:51;20.40;39.50
65568;DHT22;52211;50.154;8.682;2023-06-14T06:53:20;20.40;39.40
65568;DHT22;52211;50.154;8.682;2023-06-14T06:56:10;20.50;39.40
65568;DHT22;52211;50.154;8.682;2023-06-14T06:58:42;20.60;39.40
65568;DHT22;52211;50.154;8.682;2023-06-14T07:01:09;20.60;39.50
65568;DHT22;52211;50.154;8.682;2023-06-14T07:03:38;20.60;39.40
65568;DHT22;52211;50.154;8.682;2023-06-14T07:06:07;20.70;39.50
65568;DHT22;52211;50.154;8.682;2023-06-14T07:08:39;20.70;39.50
65568;DHT22;52211;50.154;8.682;2023-06-14T07:11:08;20.80;39.50
65568;DHT22;52211;50.154;8.682;2023-06-14T07:13:35;20.90;39.70
65568;DHT22;52211;50.154;8.682;2023-06-14T07:16:04;20.90;39.50
65568;DHT22;52211;50.154;8.682;2023-06-14T07:18:32;21.00;39.60
65568;DHT22;52211;50.154;8.682;2023-06-14T07:21:01;21.10;39.60
65568;DHT22;52211;50.154;8.682;2023-06-14T07:23:28;21.10;39.60
65568;DHT22;52211;50.154;8.682;2023-06-14T07:25:55;21.20;39.50
65568;DHT22;52211;50.154;8.682;2023-06-14T07:28:29;21.30;39.50
65568;DHT22;52211;50.154;8.682;2023-06-14T07:30:58;21.40;39.60
65568;DHT22;52211;50.154;8.682;2023-06-14T07:33:30;21.40;39.50
65568;DHT22;52211;50.154;8.682;2023-06-14T07:35:59;21.50;39.40
65568;DHT22;52211;50.154;8.682;2023-06-14T07:38:29;21.60;39.40
65568;DHT22;52211;50.154;8.682;2023-06-14T07:40:56;21.60;39.30
65568;DHT22;52211;50.154;8.682;2023-06-14T07:43:23;21.70;39.30
65568;DHT22;52211;50.154;8.682;2023-06-14T07:45:50;21.80;39.20
65568;DHT22;52211;50.154;8.682;2023-06-14T07:48:35;21.80;39.10
65568;DHT22;52211;50.154;8.682;2023-06-14T07:51:04;21.90;39.00
65568;DHT22;52211;50.154;8.682;2023-06-14T07:53:36;21.90;39.70
65568;DHT22;52211;50.154;8.682;2023-06-14T07:56:05;22.00;39.00
65568;DHT22;52211;50.154;8.682;2023-06-14T07:58:32;22.10;38.80
65568;DHT22;52211;50.154;8.682;2023-06-14T08:01:01;22.20;38.70
65568;DHT22;52211;50.154;8.682;2023-06-14T08:03:33;22.20;38.70
65568;DHT22;52211;50.154;8.682;2023-06-14T08:06:00;22.20;38.70
65568;DHT22;52211;50.154;8.682;2023-06-14T08:08:30;22.30;38.70
65568;DHT22;52211;50.154;8.682;2023-06-14T08:11:05;22.30;38.60
65568;DHT22;52211;50.154;8.682;2023-06-14T08:13:32;22.40;38.70
65568;DHT22;52211;50.154;8.682;2023-06-14T08:16:01;22.40;38.50
65568;DHT22;52211;50.154;8.682;2023-06-14T08:18:31;22.50;38.50
65568;DHT22;52211;50.154;8.682;2023-06-14T08:21:00;22.50;38.40
65568;DHT22;52211;50.154;8.682;2023-06-14T08:23:32;22.60;38.40
65568;DHT22;52211;50.154;8.682;2023-06-14T08:26:04;22.70;38.40
65568;DHT22;52211;50.154;8.682;2023-06-14T08:28:36;22.60;38.30
65568;DHT22;52211;50.154;8.682;2023-06-14T08:31:10;22.70;38.30
65568;DHT22;52211;50.154;8.682;2023-06-14T08:33:39;22.70;38.20
65568;DHT22;52211;50.154;8.682;2023-06-14T08:36:09;22.70;38.10
65568;DHT22;52211;50.154;8.682;2023-06-14T08:38:37;22.80;38.10
65568;DHT22;52211;50.154;8.682;2023-06-14T08:41:05;22.80;38.00
65568;DHT22;52211;50.154;8.682;2023-06-14T08:43:33;22.80;37.90
65568;DHT22;52211;50.154;8.682;2023-06-14T08:46:04;22.80;37.90
65568;DHT22;52211;50.154;8.682;2023-06-14T08:48:35;22.80;37.80
65568;DHT22;52211;50.154;8.682;2023-06-14T08:51:03;22.80;37.80
65568;DHT22;52211;50.154;8.682;2023-06-14T08:53:35;22.80;37.90
65568;DHT22;52211;50.154;8.682;2023-06-14T08:56:10;22.80;37.90
65568;DHT22;52211;50.154;8.682;2023-06-14T08:58:44;22.80;37.80
65568;DHT22;52211;50.154;8.682;2023-06-14T09:01:18;22.90;37.70
65568;DHT22;52211;50.154;8.682;2023-06-14T09:03:49;22.90;37.70
65568;DHT22;52211;50.154;8.682;2023-06-14T09:06:17;22.90;37.70
65568;DHT22;52211;50.154;8.682;2023-06-14T09:08:49;22.90;37.70
65568;DHT22;52211;50.154;8.682;2023-06-14T09:11:19;23.00;37.80
65568;DHT22;52211;50.154;8.682;2023-06-14T09:13:50;23.00;38.40
65568;DHT22;52211;50.154;8.682;2023-06-14T09:16:22;23.10;37.70
65568;DHT22;52211;50.154;8.682;2023-06-14T09:18:54;23.10;37.70
65568;DHT22;52211;50.154;8.682;2023-06-14T09:21:25;23.30;37.80
65568;DHT22;52211;50.154;8.682;2023-06-14T09:23:57;23.30;37.60
65568;DHT22;52211;50.154;8.682;2023-06-14T09:26:27;23.50;37.50
65568;DHT22;52211;50.154;8.682;2023-06-14T09:28:56;23.50;37.40
65568;DHT22;52211;50.154;8.682;2023-06-14T09:31:26;23.60;37.30
65568;DHT22;52211;50.154;8.682;2023-06-14T09:33:59;23.60;37.20
65568;DHT22;52211;50.154;8.682;2023-06-14T09:36:34;23.70;37.20
65568;DHT22;52211;50.154;8.682;2023-06-14T09:39:02;23.90;37.20
65568;DHT22;52211;50.154;8.682;2023-06-14T09:41:36;23.90;37.10
65568;DHT22;52211;50.154;8.682;2023-06-14T09:44:06;24.00;37.10
65568;DHT22;52211;50.154;8.682;2023-06-14T09:46:50;24.10;36.90
65568;DHT22;52211;50.154;8.682;2023-06-14T09:49:18;24.20;36.70
65568;DHT22;52211;50.154;8.682;2023-06-14T09:51:49;24.30;36.70
65568;DHT22;52211;50.154;8.682;2023-06-14T09:54:22;24.40;36.80
65568;DHT22;52211;50.154;8.682;2023-06-14T09:56:54;24.50;36.60
65568;DHT22;52211;50.154;8.682;2023-06-14T09:59:28;24.60;36.40
65568;DHT22;52211;50.154;8.682;2023-06-14T10:02:00;24.70;36.20
65568;DHT22;52211;50.154;8.682;2023-06-14T10:04:41;24.90;36.20
65568;DHT22;52211;50.154;8.682;2023-06-14T10:07:23;24.90;36.00
65568;DHT22;52211;50.154;8.682;2023-06-14T10:09:55;25.00;35.90
65568;DHT22;52211;50.154;8.682;2023-06-14T10:12:21;25.10;36.00
65568;DHT22;52211;50.154;8.682;2023-06-14T10:14:50;25.20;36.10
65568;DHT22;52211;50.154;8.682;2023-06-14T10:23:16;25.50;35.80
65568;DHT22;52211;50.154;8.682;2023-06-14T10:25:50;25.60;35.80
65568;DHT22;52211;50.154;8.682;2023-06-14T10:28:23;25.60;35.60
65568;DHT22;52211;50.154;8.682;2023-06-14T10:31:11;25.70;35.60
65568;DHT22;52211;50.154;8.682;2023-06-14T10:36:32;25.80;35.30
65568;DHT22;52211;50.154;8.682;2023-06-14T10:39:05;26.00;35.30
65568;DHT22;52211;50.154;8.682;2023-06-14T10:41:53;26.10;35.40
65568;DHT22;52211;50.154;8.682;2023-06-14T10:46:49;26.40;35.30
65568;DHT22;52211;50.154;8.682;2023-06-14T10:49:19;26.60;35.00
65568;DHT22;52211;50.154;8.682;2023-06-14T10:52:15;26.70;34.80
65568;DHT22;52211;50.154;8.682;2023-06-14T10:57:53;26.90;34.60
65568;DHT22;52211;50.154;8.682;2023-06-14T11:00:29;27.00;34.70
65568;DHT22;52211;50.154;8.682;2023-06-14T11:05:58;27.40;34.40
65568;DHT22;52211;50.154;8.682;2023-06-14T11:11:48;27.90;34.30
65568;DHT22;52211;50.154;8.682;2023-06-14T11:14:19;28.30;34.60
65568;DHT22;52211;50.154;8.682;2023-06-14T11:16:51;28.60;34.40
65568;DHT22;52211;50.154;8.682;2023-06-14T11:19:21;28.90;33.90
65568;DHT22;52211;50.154;8.682;2023-06-14T11:21:51;29.20;33.70
65568;DHT22;52211;50.154;8.682;2023-06-14T11:24:20;29.50;33.50
65568;DHT22;52211;50.154;8.682;2023-06-14T11:26:48;29.70;33.20
65568;DHT22;52211;50.154;8.682;2023-06-14T11:29:20;29.80;32.90
65568;DHT22;52211;50.154;8.682;2023-06-14T11:31:50;29.80;32.40
65568;DHT22;52211;50.154;8.682;2023-06-14T11:34:20;29.80;33.00
65568;DHT22;52211;50.154;8.682;2023-06-14T11:36:49;29.80;32.40
65568;DHT22;52211;50.154;8.682;2023-06-14T11:39:16;29.80;32.20
65568;DHT22;52211;50.154;8.682;2023-06-14T11:41:50;29.80;32.20
65568;DHT22;52211;50.154;8.682;2023-06-14T11:44:22;29.80;31.90
65568;DHT22;52211;50.154;8.682;2023-06-14T11:46:49;29.80;31.70
65568;DHT22;52211;50.154;8.682;2023-06-14T11:49:18;29.90;31.70
65568;DHT22;52211;50.154;8.682;2023-06-14T11:51:50;29.80;31.40
65568;DHT22;52211;50.154;8.682;2023-06-14T11:54:19;29.80;31.30
65568;DHT22;52211;50.154;8.682;2023-06-14T11:56:48;29.80;31.20
65568;DHT22;52211;50.154;8.682;2023-06-14T11:59:15;29.70;31.10
65568;DHT22;52211;50.154;8.682;2023-06-14T12:01:47;29.60;31.10
65568;DHT22;52211;50.154;8.682;2023-06-14T12:04:26;29.60;31.20
65568;DHT22;52211;50.154;8.682;2023-06-14T12:06:53;29.70;30.90
65568;DHT22;52211;50.154;8.682;2023-06-14T12:09:24;29.80;31.30
65568;DHT22;52211;50.154;8.682;2023-06-14T12:12:02;29.90;30.90
65568;DHT22;52211;50.154;8.682;2023-06-14T12:14:30;29.90;30.60
65568;DHT22;52211;50.154;8.682;2023-06-14T12:17:09;30.00;30.70
65568;DHT22;52211;50.154;8.682;2023-06-14T12:19:43;29.90;30.10
65568;DHT22;52211;50.154;8.682;2023-06-14T12:22:13;29.80;30.30
65568;DHT22;52211;50.154;8.682;2023-06-14T12:24:43;29.70;30.50
65568;DHT22;52211;50.154;8.682;2023-06-14T12:27:13;29.80;30.50
65568;DHT22;52211;50.154;8.682;2023-06-14T12:29:43;29.70;30.30
65568;DHT22;52211;50.154;8.682;2023-06-14T12:32:11;29.70;30.30
65568;DHT22;52211;50.154;8.682;2023-06-14T12:34:38;29.60;30.30
65568;DHT22;52211;50.154;8.682;2023-06-14T12:37:05;29.60;30.20
65568;DHT22;52211;50.154;8.682;2023-06-14T12:39:33;29.60;30.00
65568;DHT22;52211;50.154;8.682;2023-06-14T12:42:05;29.50;30.00
65568;DHT22;52211;50.154;8.682;2023-06-14T12:44:37;29.40;30.00
65568;DHT22;52211;50.154;8.682;2023-06-14T12:47:11;29.30;29.90
65568;DHT22;52211;50.154;8.682;2023-06-14T12:49:41;29.20;30.00
65568;DHT22;52211;50.154;8.682;2023-06-14T12:52:11;29.00;29.80
65568;DHT22;52211;50.154;8.682;2023-06-14T12:54:45;28.90;29.90
65568;DHT22;52211;50.154;8.682;2023-06-14T12:57:12;28.90;30.00
65568;DHT22;52211;50.154;8.682;2023-06-14T12:59:39;28.90;30.00
65568;DHT22;52211;50.154;8.682;2023-06-14T13:02:18;28.80;30.00
65568;DHT22;52211;50.154;8.682;2023-06-14T13:04:53;28.80;29.80
65568;DHT22;52211;50.154;8.682;2023-06-14T13:07:24;28.90;30.10
65568;DHT22;52211;50.154;8.682;2023-06-14T13:09:56;28.90;30.10
65568;DHT22;52211;50.154;8.682;2023-06-14T13:12:26;29.00;30.00
65568;DHT22;52211;50.154;8.682;2023-06-14T13:14:58;29.20;30.00
65568;DHT22;52211;50.154;8.682;2023-06-14T13:17:27;29.30;30.10
65568;DHT22;52211;50.154;8.682;2023-06-14T13:19:54;29.50;30.20
65568;DHT22;52211;50.154;8.682;2023-06-14T13:22:24;29.80;30.30
65568;DHT22;52211;50.154;8.682;2023-06-14T13:24:56;30.20;30.20
65568;DHT22;52211;50.154;8.682;2023-06-14T13:27:23;30.50;30.00
65568;DHT22;52211;50.154;8.682;2023-06-14T13:29:54;30.90;29.90
65568;DHT22;52211;50.154;8.682;2023-06-14T13:32:25;31.40;29.80
65568;DHT22;52211;50.154;8.682;2023-06-14T13:34:53;31.80;29.50
65568;DHT22;52211;50.154;8.682;2023-06-14T13:37:20;32.20;29.50
65568;DHT22;52211;50.154;8.682;2023-06-14T13:39:49;32.60;29.60
65568;DHT22;52211;50.154;8.682;2023-06-14T13:42:18;33.00;30.00
65568;DHT22;52211;50.154;8.682;2023-06-14T13:44:45;33.40;29.50
65568;DHT22;52211;50.154;8.682;2023-06-14T13:47:19;33.80;29.20
65568;DHT22;52211;50.154;8.682;2023-06-14T13:49:51;34.20;29.50
65568;DHT22;52211;50.154;8.682;2023-06-14T13:52:25;34.50;28.60
65568;DHT22;52211;50.154;8.682;2023-06-14T13:54:54;34.80;28.50
65568;DHT22;52211;50.154;8.682;2023-06-14T13:57:26;35.10;28.50
65568;DHT22;52211;50.154;8.682;2023-06-14T13:59:57;35.30;28.10
65568;DHT22;52211;50.154;8.682;2023-06-14T14:02:40;35.50;27.90
65568;DHT22;52211;50.154;8.682;2023-06-14T14:05:09;35.70;27.80
65568;DHT22;52211;50.154;8.682;2023-06-14T14:07:40;35.90;27.90
65568;DHT22;52211;50.154;8.682;2023-06-14T14:10:08;36.10;27.60
65568;DHT22;52211;50.154;8.682;2023-06-14T14:12:44;36.10;27.40
65568;DHT22;52211;50.154;8.682;2023-06-14T14:15:17;36.20;27.30
65568;DHT22;52211;50.154;8.682;2023-06-14T14:17:45;36.40;27.20
65568;DHT22;52211;50.154;8.682;2023-06-14T14:20:14;36.50;27.20
65568;DHT22;52211;50.154;8.682;2023-06-14T14:22:45;36.50;27.00
65568;DHT22;52211;50.154;8.682;2023-06-14T14:25:16;36.50;26.70
65568;DHT22;52211;50.154;8.682;2023-06-14T14:27:43;36.50;26.60
65568;DHT22;52211;50.154;8.682;2023-06-14T14:30:17;36.30;26.40
65568;DHT22;52211;50.154;8.682;2023-06-14T14:32:53;36.00;26.30
65568;DHT22;52211;50.154;8.682;2023-06-14T14:35:25;35.80;26.30
65568;DHT22;52211;50.154;8.682;2023-06-14T14:37:57;35.50;26.30
65568;DHT22;52211;50.154;8.682;2023-06-14T14:40:26;35.30;26.40
65568;DHT22;52211;50.154;8.682;2023-06-14T14:42:56;35.00;26.40
65568;DHT22;52211;50.154;8.682;2023-06-14T14:45:27;34.60;26.30
65568;DHT22;52211;50.154;8.682;2023-06-14T14:47:56;34.40;26.60
65568;DHT22;52211;50.154;8.682;2023-06-14T14:50:25;34.20;26.70
65568;DHT22;52211;50.154;8.682;2023-06-14T14:52:52;34.20;26.80
65568;DHT22;52211;50.154;8.682;2023-06-14T14:55:23;34.20;26.80
65568;DHT22;52211;50.154;8.682;2023-06-14T14:57:51;34.30;26.80
65568;DHT22;52211;50.154;8.682;2023-06-14T15:00:20;34.30;26.60
65568;DHT22;52211;50.154;8.682;2023-06-14T15:02:47;34.30;26.40
65568;DHT22;52211;50.154;8.682;2023-06-14T15:05:16;34.30;26.40
65568;DHT22;52211;50.154;8.682;2023-06-14T15:07:43;34.30;26.50
65568;DHT22;52211;50.154;8.682;2023-06-14T15:10:14;34.40;26.60
65568;DHT22;52211;50.154;8.682;2023-06-14T15:12:44;34.60;26.70
65568;DHT22;52211;50.154;8.682;2023-06-14T15:15:14;34.80;26.60
65568;DHT22;52211;50.154;8.682;2023-06-14T15:17:41;35.00;26.30
65568;DHT22;52211;50.154;8.682;2023-06-14T15:20:12;35.10;26.20
65568;DHT22;52211;50.154;8.682;2023-06-14T15:22:42;35.00;26.10
65568;DHT22;52211;50.154;8.682;2023-06-14T15:25:14;34.90;26.00
65568;DHT22;52211;50.154;8.682;2023-06-14T15:27:48;34.70;25.90
65568;DHT22;52211;50.154;8.682;2023-06-14T15:30:17;34.50;26.00
65568;DHT22;52211;50.154;8.682;2023-06-14T15:32:45;34.40;26.00
65568;DHT22;52211;50.154;8.682;2023-06-14T15:35:12;34.20;26.00
65568;DHT22;52211;50.154;8.682;2023-06-14T15:37:41;33.90;25.90
65568;DHT22;52211;50.154;8.682;2023-06-14T15:40:08;33.70;25.90
65568;DHT22;52211;50.154;8.682;2023-06-14T15:42:35;33.50;25.90
65568;DHT22;52211;50.154;8.682;2023-06-14T15:45:05;33.20;26.00
65568;DHT22;52211;50.154;8.682;2023-06-14T15:47:39;32.90;26.00
65568;DHT22;52211;50.154;8.682;2023-06-14T15:50:09;32.60;26.20
65568;DHT22;52211;50.154;8.682;2023-06-14T15:52:37;32.40;26.30
65568;DHT22;52211;50.154;8.682;2023-06-14T15:55:05;32.30;26.50
65568;DHT22;52211;50.154;8.682;2023-06-14T15:57:34;32.20;26.50
65568;DHT22;52211;50.154;8.682;2023-06-14T16:00:02;32.00;26.60
65568;DHT22;52211;50.154;8.682;2023-06-14T16:02:30;32.00;26.60
65568;DHT22;52211;50.154;8.682;2023-06-14T16:05:02;31.90;26.40
65568;DHT22;52211;50.154;8.682;2023-06-14T16:07:29;31.70;26.40
65568;DHT22;52211;50.154;8.682;2023-06-14T16:10:01;31.60;26.40
65568;DHT22;52211;50.154;8.682;2023-06-14T16:12:27;31.40;26.40
65568;DHT22;52211;50.154;8.682;2023-06-14T16:14:59;31.30;26.40
65568;DHT22;52211;50.154;8.682;2023-06-14T16:17:26;31.10;26.40